Last Mistake — WDH2903 — position and weather

sailwx.info

Track history (hours):
 
Tides and Currents Weather Stations Pressure Air Temp Water Temp Dewpoint Dewpoint Depression Visibility Wind Speed Wind Dir Waves Ship Positions

Last Mistake

Owner: Brown, Robert L, Fairfax, VA. More information available from US FCC via Universal Licensing System.

Last reported at 2017-Sep-17 14:14 UTC. Time now 2017-Sep-21 05:26 UTC.
Position N 39°27' W 075°59'.

Length 16 m.

Type: Pleasure craft. MMSI: 367602360.

Date/timePositionNaut miles runAvg speedWind from/ knotsBaromVisibWave heightAir tempDewpointWater temp
2017-Sep-17 14:14N 39°27' W 075°59'2 7.4
2017-Sep-17 14:00N 39°28' W 075°58'4 6.9
2017-Sep-17 13:29N 39°31' W 075°54'3 6.6
2017-Sep-17 13:00N 39°32' W 075°50'3 6.4
2017-Sep-17 12:30N 39°32' W 075°46'3 6.0
2017-Sep-17 12:00N 39°33' W 075°42'0 0.1
2017-Sep-17 11:28N 39°33' W 075°42'0 0.0
2017-Sep-16 23:11N 39°33' W 075°42'0 0.6
2017-Sep-16 23:00N 39°33' W 075°42'2 3.2
2017-Sep-16 22:30N 39°33' W 075°40'3 6.4
2017-Sep-16 22:00N 39°33' W 075°36'3 5.3
2017-Sep-16 21:30N 39°33' W 075°33'4 8.5
2017-Sep-16 21:00N 39°28' W 075°34'4 8.2
2017-Sep-16 20:30N 39°25' W 075°31'4 7.6
2017-Sep-16 20:00N 39°22' W 075°27'4 7.4
2017-Sep-16 19:30N 39°20' W 075°24'3 6.8
2017-Sep-16 19:01N 39°17' W 075°21'4 7.1
2017-Sep-16 18:30N 39°14' W 075°18'3 6.5
2017-Sep-16 18:00N 39°12' W 075°16'4 7.1
2017-Sep-16 17:30N 39°09' W 075°13'4 7.1
2017-Sep-16 16:58N 39°06' W 075°10'56 1.2
2017-Sep-14 18:23N 39°37' W 074°10'3 6.7
2017-Sep-14 17:59N 39°40' W 074°08'3 6.9
2017-Sep-14 17:30N 39°43' W 074°06'3 6.6
2017-Sep-14 17:00N 39°46' W 074°04'50 2.5
2017-Sep-13 20:48N 40°36' W 074°02'2 7.8
2017-Sep-13 20:30N 40°38' W 074°03'3 5.9
2017-Sep-13 20:00N 40°41' W 074°01'3 5.6
2017-Sep-13 19:30N 40°43' W 073°59'3 5.7
2017-Sep-13 19:00N 40°45' W 073°58'67 1.4
2017-Sep-11 18:26N 41°14' W 072°38'3 7.8
2017-Sep-11 18:01N 41°13' W 072°33'4 8.2
2017-Sep-11 17:30N 41°13' W 072°28'  
Track history (hours):
 
Tides and Currents Weather Stations Pressure Air Temp Water Temp Dewpoint Dewpoint Depression Visibility Wind Speed Wind Dir Waves Ship Positions

Last Mistake

Owner: Brown, Robert L, Fairfax, VA. More information available from US FCC via Universal Licensing System.

Last reported at 2017-Sep-17 14:14 UTC. Time now 2017-Sep-21 05:26 UTC.
Position N 39°27' W 075°59'.

Length 16 m.

Type: Pleasure craft. MMSI: 367602360.

Date/timePositionNaut miles runAvg speedWind from/ knotsBaromVisibWave heightAir tempDewpointWater temp
2017-Sep-17 14:14N 39°27' W 075°59'2 7.4
2017-Sep-17 14:00N 39°28' W 075°58'4 6.9
2017-Sep-17 13:29N 39°31' W 075°54'3 6.6
2017-Sep-17 13:00N 39°32' W 075°50'3 6.4
2017-Sep-17 12:30N 39°32' W 075°46'3 6.0
2017-Sep-17 12:00N 39°33' W 075°42'0 0.1
2017-Sep-17 11:28N 39°33' W 075°42'0 0.0
2017-Sep-16 23:11N 39°33' W 075°42'0 0.6
2017-Sep-16 23:00N 39°33' W 075°42'2 3.2
2017-Sep-16 22:30N 39°33' W 075°40'3 6.4
2017-Sep-16 22:00N 39°33' W 075°36'3 5.3
2017-Sep-16 21:30N 39°33' W 075°33'4 8.5
2017-Sep-16 21:00N 39°28' W 075°34'4 8.2
2017-Sep-16 20:30N 39°25' W 075°31'4 7.6
2017-Sep-16 20:00N 39°22' W 075°27'4 7.4
2017-Sep-16 19:30N 39°20' W 075°24'3 6.8
2017-Sep-16 19:01N 39°17' W 075°21'4 7.1
2017-Sep-16 18:30N 39°14' W 075°18'3 6.5
2017-Sep-16 18:00N 39°12' W 075°16'4 7.1
2017-Sep-16 17:30N 39°09' W 075°13'4 7.1
2017-Sep-16 16:58N 39°06' W 075°10'56 1.2
2017-Sep-14 18:23N 39°37' W 074°10'3 6.7
2017-Sep-14 17:59N 39°40' W 074°08'3 6.9
2017-Sep-14 17:30N 39°43' W 074°06'3 6.6
2017-Sep-14 17:00N 39°46' W 074°04'50 2.5
2017-Sep-13 20:48N 40°36' W 074°02'2 7.8
2017-Sep-13 20:30N 40°38' W 074°03'3 5.9
2017-Sep-13 20:00N 40°41' W 074°01'3 5.6
2017-Sep-13 19:30N 40°43' W 073°59'3 5.7
2017-Sep-13 19:00N 40°45' W 073°58'67 1.4
2017-Sep-11 18:26N 41°14' W 072°38'3 7.8
2017-Sep-11 18:01N 41°13' W 072°33'4 8.2
2017-Sep-11 17:30N 41°13' W 072°28'  

Dump ship's entire track history